Raleigh Durham International Airport
KRDU : now visible

Airfield :











YOU CAN JOIN US ON...

 
LOGIN :

Register | Disclaimer

   EN    FR    IT 

 









Legend :    VFR   Marginal VFR   IFR   Intensive IFR   Very Intensive IFR
Visi :
Ceiling :
>= 8 km
>= 3000ft
5 to 8 km
1000 to 3000 ft
1500m to 5 km
500 to 1000 ft
800 to 1500m
200 to 500 ft
< 800m
< 200 ft
Symbols :   Thunderstorms  Fog  Heavy snow  Heavy precipitations  Wind > 20 kt






- Airport Elevation : 435 ft
- IATA code : RDU


KRDU - Raleigh Durham International

CURRENT METAR :
  • 141251Z 20006KT 10SM CLR 26/18 A2999 RMK AO2 SLP150 T02560183

EXPIRED METARs :
  • 141151Z 00000KT 10SM CLR 23/18 A2999 RMK AO2 SLP148 T02330183 10233 20189 53005
  • 141051Z 00000KT 10SM CLR 20/17 A2997 RMK AO2 SLP145 T02000172
  • 140951Z 00000KT 10SM CLR 19/17 A2997 RMK AO2 SLP144 T01940167
  • 140851Z 00000KT 10SM FEW100 21/17 A2997 RMK AO2 SLP143 T02060167 56004

TAF KRDU
Valid from the 14 at 12:00 until the 15 at 12:00 UTC


141120Z 1412/1512 23004KT P6SM SKC
FM141800 25006KT P6SM SCT060 BKN250
FM150600 34004KT P6SM FEW250
KZDC FIR / North America



MET'MAP, your aeronautical weather chart ! - Copyright ORBIFLY December 2007 - Disclaimer

ORBIFLY MET'MAP TEAM :

Programming & Development : Alexandra Zaïnal
Original concept : Baudouin d'Aumeries
Technical & hardware support : Manuel Goepfert
Assistance : Marc-Olivier Méhu




SOURCES & CREDITS :

   NOAA       Earth
Advisory